createdAt,value
2017-09-07T00:00:24.821Z,1005.29
2017-09-07T00:01:37.350Z,1005.37
2017-09-07T00:02:49.591Z,1005.32
2017-09-07T00:04:02.104Z,1005.33
2017-09-07T00:05:14.332Z,1005.37
2017-09-07T00:06:26.556Z,1005.34
2017-09-07T00:07:39.099Z,1005.31
2017-09-07T00:08:51.315Z,1005.36
2017-09-07T00:10:03.238Z,1005.36
2017-09-07T00:11:15.786Z,1005.24
2017-09-07T00:12:28.028Z,1005.26
2017-09-07T00:13:40.569Z,1005.3
2017-09-07T00:14:52.775Z,1005.34
2017-09-07T00:16:05.322Z,1005.36
2017-09-07T00:17:17.240Z,1005.4
2017-09-07T00:18:29.438Z,1005.36
2017-09-07T00:19:41.978Z,1005.31
2017-09-07T00:20:54.526Z,1005.38
2017-09-07T00:22:07.049Z,1005.37
2017-09-07T00:23:18.654Z,1005.43
2017-09-07T00:24:31.440Z,1005.43
2017-09-07T00:25:43.641Z,1005.4
2017-09-07T00:26:55.881Z,1005.42
2017-09-07T00:28:08.425Z,1005.39
2017-09-07T00:29:20.669Z,1005.36
2017-09-07T00:30:32.573Z,1005.36
2017-09-07T00:31:44.818Z,1005.35
2017-09-07T00:32:57.057Z,1005.38
2017-09-07T00:34:09.603Z,1005.39
2017-09-07T00:35:22.152Z,1005.41
2017-09-07T00:36:34.688Z,1005.44
2017-09-07T00:37:47.245Z,1005.42
2017-09-07T00:38:59.789Z,1005.5
2017-09-07T00:40:12.031Z,1005.47
2017-09-07T00:41:24.580Z,1005.45
2017-09-07T00:42:36.789Z,1005.39
2017-09-07T00:43:49.025Z,1005.42
2017-09-07T00:45:00.992Z,1005.36
2017-09-07T00:46:13.538Z,1005.42
2017-09-07T00:47:25.784Z,1005.41
2017-09-07T00:48:38.328Z,1005.4
2017-09-07T00:49:50.267Z,1005.37
2017-09-07T00:51:02.817Z,1005.41
2017-09-07T00:52:15.362Z,1005.35
2017-09-07T00:53:27.587Z,1005.37
2017-09-07T00:54:40.108Z,1005.33
2017-09-07T00:55:52.656Z,1005.31
2017-09-07T00:57:04.874Z,1005.29
2017-09-07T00:58:17.419Z,1005.34
2017-09-07T00:59:29.664Z,1005.31
2017-09-07T01:00:41.908Z,1005.38
2017-09-07T01:01:53.795Z,1005.33
2017-09-07T01:03:06.024Z,1005.29
2017-09-07T01:04:18.275Z,1005.33
2017-09-07T01:05:30.490Z,1005.3
2017-09-07T01:06:43.013Z,1005.26
2017-09-07T01:07:55.538Z,1005.28
2017-09-07T01:09:07.768Z,1005.21
2017-09-07T01:10:19.675Z,1005.23
2017-09-07T01:11:31.608Z,1005.23
2017-09-07T01:12:43.838Z,1005.22
2017-09-07T01:13:56.404Z,1005.23
2017-09-07T01:15:08.611Z,1005.22
2017-09-07T01:16:20.229Z,1005.22
2017-09-07T01:17:32.463Z,1005.14
2017-09-07T01:18:44.996Z,1005.19
2017-09-07T01:19:57.544Z,1005.15
2017-09-07T01:21:09.762Z,1005.19
2017-09-07T01:22:22.307Z,1005.2
2017-09-07T01:23:34.853Z,1005.17
2017-09-07T01:24:47.390Z,1005.17
2017-09-07T01:25:59.919Z,1005.16
2017-09-07T01:27:12.486Z,1005.19
2017-09-07T01:28:24.678Z,1005.21
2017-09-07T01:29:37.203Z,1005.16
2017-09-07T01:30:49.716Z,1005.19
2017-09-07T01:32:01.918Z,1005.19
2017-09-07T01:33:14.465Z,1005.14
2017-09-07T01:34:26.706Z,1005.13
2017-09-07T01:35:39.259Z,1005.12
2017-09-07T01:36:51.818Z,1005.15
2017-09-07T01:38:03.757Z,1005.14
2017-09-07T01:39:16.295Z,1005.17
2017-09-07T01:40:28.833Z,1005.12
2017-09-07T01:41:41.036Z,1005.19
2017-09-07T01:42:53.257Z,1005.13
2017-09-07T01:44:05.801Z,1005.16
2017-09-07T01:45:18.321Z,1005.15
2017-09-07T01:46:30.537Z,1005.12
2017-09-07T01:47:42.491Z,1005.22
2017-09-07T01:48:54.108Z,1005.19
2017-09-07T01:50:06.321Z,1005.19
2017-09-07T01:51:18.555Z,1005.19
2017-09-07T01:52:31.096Z,1005.2
2017-09-07T01:53:43.007Z,1005.28
2017-09-07T01:54:55.511Z,1005.3
2017-09-07T01:56:08.024Z,1005.17
2017-09-07T01:57:20.252Z,1005.26
2017-09-07T01:58:32.474Z,1005.24
2017-09-07T01:59:44.693Z,1005.23
2017-09-07T02:00:56.913Z,1005.23
2017-09-07T02:02:09.715Z,1005.21
2017-09-07T02:03:21.956Z,1005.25
2017-09-07T02:04:34.201Z,1005.27
2017-09-07T02:05:46.114Z,1005.3
2017-09-07T02:06:58.037Z,1005.22
2017-09-07T02:08:10.256Z,1005.24
2017-09-07T02:09:22.480Z,1005.21
2017-09-07T02:10:35.024Z,1005.28
2017-09-07T02:11:47.276Z,1005.25
2017-09-07T02:12:59.496Z,1005.21
2017-09-07T02:14:12.037Z,1005.25
2017-09-07T02:15:23.941Z,1005.27
2017-09-07T02:16:36.484Z,1005.25
2017-09-07T02:17:49.033Z,1005.23
2017-09-07T02:19:01.275Z,1005.22
2017-09-07T02:20:13.819Z,1005.24
2017-09-07T02:21:26.344Z,1005.21
2017-09-07T02:22:38.907Z,1005.21
2017-09-07T02:23:51.709Z,1005.23
2017-09-07T02:25:03.628Z,1005.26
2017-09-07T02:26:15.848Z,1005.25
2017-09-07T02:27:28.097Z,1005.29
2017-09-07T02:28:39.717Z,1005.24
2017-09-07T02:29:51.965Z,1005.23
2017-09-07T02:31:04.505Z,1005.22
2017-09-07T02:32:16.735Z,1005.27
2017-09-07T02:33:29.326Z,1005.24
2017-09-07T02:34:41.568Z,1005.23
2017-09-07T02:35:53.487Z,1005.25
2017-09-07T02:37:05.433Z,1005.26
2017-09-07T02:38:17.631Z,1005.25
2017-09-07T02:39:29.876Z,1005.28
2017-09-07T02:40:42.429Z,1005.24
2017-09-07T02:41:54.370Z,1005.25
2017-09-07T02:43:06.312Z,1005.21
2017-09-07T02:44:18.834Z,1005.16
2017-09-07T02:45:31.371Z,1005.16
2017-09-07T02:46:43.278Z,1005.19
2017-09-07T02:47:55.497Z,1005.23
2017-09-07T02:49:08.048Z,1005.29
2017-09-07T02:50:20.571Z,1005.22
2017-09-07T02:51:32.535Z,1005.23
2017-09-07T02:52:45.081Z,1005.25
2017-09-07T02:53:57.655Z,1005.18
2017-09-07T02:55:09.877Z,1005.21
2017-09-07T02:56:21.810Z,1005.23
2017-09-07T02:57:34.036Z,1005.18
2017-09-07T02:58:46.259Z,1005.22
2017-09-07T02:59:58.820Z,1005.22
2017-09-07T03:01:11.022Z,1005.22
2017-09-07T03:02:22.921Z,1005.21
2017-09-07T03:03:35.490Z,1005.23
2017-09-07T03:04:48.026Z,1005.22
2017-09-07T03:05:59.937Z,1005.18
2017-09-07T03:07:12.729Z,1005.14
2017-09-07T03:08:25.300Z,1005.17
2017-09-07T03:09:37.817Z,1005.18
2017-09-07T03:10:50.344Z,1005.21
2017-09-07T03:12:02.286Z,1005.19
2017-09-07T03:13:14.507Z,1005.26
2017-09-07T03:14:27.066Z,1005.19
2017-09-07T03:15:39.595Z,1005.21
2017-09-07T03:16:51.813Z,1005.2
2017-09-07T03:18:04.035Z,1005.23
2017-09-07T03:19:16.582Z,1005.17
2017-09-07T03:20:29.103Z,1005.21
2017-09-07T03:21:41.022Z,1005.22
2017-09-07T03:22:53.251Z,1005.2
2017-09-07T03:24:05.767Z,1005.21
2017-09-07T03:25:17.977Z,1005.18
2017-09-07T03:26:30.506Z,1005.2
2017-09-07T03:27:42.744Z,1005.27
2017-09-07T03:28:55.288Z,1005.21
2017-09-07T03:30:07.822Z,1005.24
2017-09-07T03:31:20.088Z,1005.21
2017-09-07T03:32:32.634Z,1005.22
2017-09-07T03:33:45.181Z,1005.24
2017-09-07T03:34:57.717Z,1005.2
2017-09-07T03:36:09.949Z,1005.23
2017-09-07T03:37:21.883Z,1005.23
2017-09-07T03:38:34.088Z,1005.24
2017-09-07T03:39:46.258Z,1005.24
2017-09-07T03:40:58.781Z,1005.22
2017-09-07T03:42:11.344Z,1005.22
2017-09-07T03:43:23.873Z,1005.22
2017-09-07T03:44:36.418Z,1005.21
2017-09-07T03:45:48.993Z,1005.24
2017-09-07T03:47:00.886Z,1005.22
2017-09-07T03:48:13.430Z,1005.25
2017-09-07T03:49:25.351Z,1005.19
2017-09-07T03:50:37.894Z,1005.23
2017-09-07T03:51:50.118Z,1005.29
2017-09-07T03:53:02.027Z,1005.24
2017-09-07T03:54:14.560Z,1005.26
2017-09-07T03:55:27.101Z,1005.24
2017-09-07T03:56:39.622Z,1005.23
2017-09-07T03:57:52.196Z,1005.26
2017-09-07T03:59:04.121Z,1005.22
2017-09-07T04:00:16.665Z,1005.26
2017-09-07T04:01:28.846Z,1005.21
2017-09-07T04:02:41.377Z,1005.22
2017-09-07T04:03:53.297Z,1005.25
2017-09-07T04:05:05.840Z,1005.21
2017-09-07T04:06:18.053Z,1005.26
2017-09-07T04:07:29.967Z,1005.26
2017-09-07T04:08:42.502Z,1005.38
2017-09-07T04:09:54.444Z,1005.29
2017-09-07T04:11:06.670Z,1005.27
2017-09-07T04:12:18.889Z,1005.33
2017-09-07T04:13:31.131Z,1005.37
2017-09-07T04:14:43.685Z,1005.34
2017-09-07T04:15:56.219Z,1005.33
2017-09-07T04:17:08.144Z,1005.38
2017-09-07T04:18:20.396Z,1005.37
2017-09-07T04:19:32.964Z,1005.39
2017-09-07T04:20:45.210Z,1005.44
2017-09-07T04:21:57.432Z,1005.39
2017-09-07T04:23:09.329Z,1005.39
2017-09-07T04:24:21.589Z,1005.33
2017-09-07T04:25:34.122Z,1005.39
2017-09-07T04:26:46.683Z,1005.33
2017-09-07T04:27:59.235Z,1005.27
2017-09-07T04:29:11.782Z,1005.25
2017-09-07T04:30:24.332Z,1005.32
2017-09-07T04:31:36.871Z,1005.36
2017-09-07T04:32:49.141Z,1005.29
2017-09-07T04:34:01.688Z,1005.27
2017-09-07T04:35:14.236Z,1005.33
2017-09-07T04:36:26.820Z,1005.33
2017-09-07T04:37:39.078Z,1005.32
2017-09-07T04:38:51.614Z,1005.32
2017-09-07T04:40:04.157Z,1005.3
2017-09-07T04:41:16.689Z,1005.34
2017-09-07T04:42:28.627Z,1005.32
2017-09-07T04:43:41.181Z,1005.3
2017-09-07T04:44:53.348Z,1005.3
2017-09-07T04:46:05.571Z,1005.31
2017-09-07T04:47:18.089Z,1005.34
2017-09-07T04:48:30.311Z,1005.34
2017-09-07T04:49:42.508Z,1005.35
2017-09-07T04:50:54.429Z,1005.34
2017-09-07T04:52:06.963Z,1005.34
2017-09-07T04:53:19.520Z,1005.41
2017-09-07T04:54:31.754Z,1005.39
2017-09-07T04:55:43.988Z,1005.41
2017-09-07T04:56:56.525Z,1005.38
2017-09-07T04:58:08.775Z,1005.47
2017-09-07T04:59:21.295Z,1005.52
2017-09-07T05:00:33.822Z,1005.5
2017-09-07T05:01:46.365Z,1005.51
2017-09-07T05:02:58.909Z,1005.54
2017-09-07T05:04:11.127Z,1005.54
2017-09-07T05:05:23.632Z,1005.49
2017-09-07T05:06:36.197Z,1005.53
2017-09-07T05:07:48.740Z,1005.56
2017-09-07T05:09:00.986Z,1005.58
2017-09-07T05:10:13.534Z,1005.59
2017-09-07T05:11:25.755Z,1005.57
2017-09-07T05:12:38.300Z,1005.56
2017-09-07T05:13:50.521Z,1005.56
2017-09-07T05:15:02.415Z,1005.5
2017-09-07T05:16:14.358Z,1005.5
2017-09-07T05:17:26.943Z,1005.51
2017-09-07T05:18:39.181Z,1005.56
2017-09-07T05:19:50.804Z,1005.55
2017-09-07T05:21:03.343Z,1005.54
2017-09-07T05:22:15.880Z,1005.56
2017-09-07T05:23:28.100Z,1005.55
2017-09-07T05:24:40.025Z,1005.57
2017-09-07T05:25:52.229Z,1005.58
2017-09-07T05:27:04.162Z,1005.56
2017-09-07T05:28:16.708Z,1005.62
2017-09-07T05:29:28.940Z,1005.55
2017-09-07T05:30:41.473Z,1005.59
2017-09-07T05:31:54.005Z,1005.57
2017-09-07T05:33:06.224Z,1005.61
2017-09-07T05:34:18.744Z,1005.64
2017-09-07T05:35:31.288Z,1005.65
2017-09-07T05:36:43.519Z,1005.64
2017-09-07T05:37:55.456Z,1005.65
2017-09-07T05:39:07.981Z,1005.66
2017-09-07T05:40:20.491Z,1005.66
2017-09-07T05:41:32.425Z,1005.64
2017-09-07T05:42:44.663Z,1005.59
2017-09-07T05:43:56.880Z,1005.64
2017-09-07T05:45:09.097Z,1005.53
2017-09-07T05:46:21.647Z,1005.57
2017-09-07T05:47:33.876Z,1005.62
2017-09-07T05:48:46.108Z,1005.64
2017-09-07T05:49:58.664Z,1005.63
2017-09-07T05:51:10.883Z,1005.66
2017-09-07T05:52:23.124Z,1005.68
2017-09-07T05:53:35.668Z,1005.76
2017-09-07T05:54:48.222Z,1005.69
2017-09-07T05:56:00.742Z,1005.74
2017-09-07T05:57:12.981Z,1005.69
2017-09-07T05:58:25.560Z,1005.73
2017-09-07T05:59:37.781Z,1005.77
2017-09-07T06:00:49.998Z,1005.67
2017-09-07T06:02:02.522Z,1005.71
2017-09-07T06:03:15.044Z,1005.74
2017-09-07T06:04:27.602Z,1005.7
2017-09-07T06:05:40.133Z,1005.71
2017-09-07T06:06:52.368Z,1005.78
2017-09-07T06:08:04.897Z,1005.76
2017-09-07T06:09:17.446Z,1005.78
2017-09-07T06:10:29.995Z,1005.76
2017-09-07T06:11:42.212Z,1005.87
2017-09-07T06:12:53.805Z,1005.88
2017-09-07T06:14:06.056Z,1005.83
2017-09-07T06:15:18.299Z,1005.86
2017-09-07T06:16:30.834Z,1005.88
2017-09-07T06:17:43.367Z,1006.04
2017-09-07T06:18:55.305Z,1005.97
2017-09-07T06:20:07.827Z,1005.95
2017-09-07T06:21:19.453Z,1005.86
2017-09-07T06:22:31.319Z,1005.88
2017-09-07T06:23:43.561Z,1005.83
2017-09-07T06:24:56.082Z,1005.89
2017-09-07T06:26:08.326Z,1005.85
2017-09-07T06:27:20.259Z,1005.82
2017-09-07T06:28:32.477Z,1005.81
2017-09-07T06:29:45.019Z,1005.91
2017-09-07T06:30:57.243Z,1005.9
2017-09-07T06:32:09.463Z,1005.89
2017-09-07T06:33:21.686Z,1005.95
2017-09-07T06:34:34.229Z,1005.94
2017-09-07T06:35:46.150Z,1005.89
2017-09-07T06:36:57.759Z,1005.87
2017-09-07T06:38:09.384Z,1005.85
2017-09-07T06:39:21.614Z,1005.87
2017-09-07T06:40:33.836Z,1005.84
2017-09-07T06:41:46.053Z,1005.83
2017-09-07T06:42:58.595Z,1005.82
2017-09-07T06:44:11.069Z,1005.89
2017-09-07T06:45:23.590Z,1005.97
2017-09-07T06:46:36.130Z,1005.94
2017-09-07T06:47:48.681Z,1005.96
2017-09-07T06:49:00.915Z,1005.86
2017-09-07T06:50:13.420Z,1005.87
2017-09-07T06:51:25.320Z,1005.86
2017-09-07T06:52:37.835Z,1005.84
2017-09-07T06:53:50.377Z,1005.87
2017-09-07T06:55:02.302Z,1005.98
2017-09-07T06:56:14.851Z,1005.9
2017-09-07T06:57:27.376Z,1005.95
2017-09-07T06:58:39.895Z,1005.96
2017-09-07T06:59:52.144Z,1005.94
2017-09-07T07:01:04.679Z,1005.94
2017-09-07T07:02:16.904Z,1005.97
2017-09-07T07:03:29.142Z,1005.93
2017-09-07T07:04:41.676Z,1005.98
2017-09-07T07:05:54.230Z,1005.96
2017-09-07T07:07:06.454Z,1005.92
2017-09-07T07:08:19.005Z,1005.89
2017-09-07T07:09:31.257Z,1005.86
2017-09-07T07:10:43.813Z,1005.99
2017-09-07T07:11:55.733Z,1005.96
2017-09-07T07:13:07.641Z,1005.99
2017-09-07T07:14:20.165Z,1005.99
2017-09-07T07:15:32.706Z,1005.96
2017-09-07T07:16:44.607Z,1006
2017-09-07T07:17:56.849Z,1006.01
2017-09-07T07:19:09.107Z,1006.11
2017-09-07T07:20:21.642Z,1006.08
2017-09-07T07:21:33.882Z,1006.09
2017-09-07T07:22:46.408Z,1005.99
2017-09-07T07:23:58.344Z,1005.92
2017-09-07T07:25:10.893Z,1005.92
2017-09-07T07:26:23.138Z,1005.94
2017-09-07T07:27:35.063Z,1005.94
2017-09-07T07:28:47.607Z,1005.95
2017-09-07T07:30:00.165Z,1005.9
2017-09-07T07:31:12.389Z,1005.91
2017-09-07T07:32:24.634Z,1005.94
2017-09-07T07:33:36.843Z,1006.04
2017-09-07T07:34:48.758Z,1005.97
2017-09-07T07:36:01.305Z,1005.98
2017-09-07T07:37:13.799Z,1006.1
2017-09-07T07:38:26.342Z,1006.12
2017-09-07T07:39:38.919Z,1006.03
2017-09-07T07:40:50.842Z,1006.06
2017-09-07T07:42:02.780Z,1006.02
2017-09-07T07:43:15.057Z,1006.15
2017-09-07T07:44:27.602Z,1006.1
2017-09-07T07:45:39.220Z,1006.11
2017-09-07T07:46:51.767Z,1006.06
2017-09-07T07:48:04.010Z,1006.01
2017-09-07T07:49:15.937Z,1005.96
2017-09-07T07:50:27.886Z,1005.94
2017-09-07T07:51:40.118Z,1006.01
2017-09-07T07:52:52.663Z,1006.1
2017-09-07T07:54:05.220Z,1006.2
2017-09-07T07:55:17.760Z,1006.16
2017-09-07T07:56:30.008Z,1006.11
2017-09-07T07:57:42.250Z,1006.13
2017-09-07T07:58:54.150Z,1006.15
2017-09-07T08:00:06.709Z,1006.16
2017-09-07T08:01:18.942Z,1006.25
2017-09-07T08:02:30.879Z,1006.15
2017-09-07T08:03:43.112Z,1006.19
2017-09-07T08:04:55.677Z,1006.2
2017-09-07T08:06:07.925Z,1006.25
2017-09-07T08:07:20.441Z,1006.18
2017-09-07T08:08:32.665Z,1006.17
2017-09-07T08:09:44.587Z,1006.15
2017-09-07T08:10:56.824Z,1006.23
2017-09-07T08:12:09.382Z,1006.17
2017-09-07T08:13:21.918Z,1006.14
2017-09-07T08:14:33.843Z,1006.14
2017-09-07T08:15:46.070Z,1006.2
2017-09-07T08:16:58.608Z,1006.17
2017-09-07T08:18:11.152Z,1006.2
2017-09-07T08:19:23.676Z,1006.17
2017-09-07T08:20:36.264Z,1006.12
2017-09-07T08:21:48.189Z,1006.03
2017-09-07T08:23:00.416Z,1006.07
2017-09-07T08:24:12.673Z,1006.09
2017-09-07T08:25:24.883Z,1006.04
2017-09-07T08:26:36.504Z,1006.03
2017-09-07T08:27:49.021Z,1005.99
2017-09-07T08:29:00.956Z,1005.99
2017-09-07T08:30:13.185Z,1006.02
2017-09-07T08:31:25.429Z,1006.02
2017-09-07T08:32:37.655Z,1006.02
2017-09-07T08:33:50.199Z,1006.02
2017-09-07T08:35:02.759Z,1006.12
2017-09-07T08:36:15.007Z,1006.06
2017-09-07T08:37:27.557Z,1006.16
2017-09-07T08:38:40.033Z,1006.1
2017-09-07T08:39:52.277Z,1006.21
2017-09-07T08:41:04.519Z,1006.24
2017-09-07T08:42:16.714Z,1006.28
2017-09-07T08:43:28.932Z,1006.2
2017-09-07T08:44:41.456Z,1006.17
2017-09-07T08:45:53.372Z,1006.15
2017-09-07T08:47:05.629Z,1006.23
2017-09-07T08:48:17.230Z,1006.29
2017-09-07T08:49:29.741Z,1006.28
2017-09-07T08:50:42.278Z,1006.26
2017-09-07T08:51:54.785Z,1006.43
2017-09-07T08:53:07.310Z,1006.28
2017-09-07T08:54:19.539Z,1006.25
2017-09-07T08:55:31.768Z,1006.45
2017-09-07T08:56:43.421Z,1006.47
2017-09-07T08:57:55.611Z,1006.26
2017-09-07T08:59:07.850Z,1006.34
2017-09-07T09:00:19.782Z,1006.43
2017-09-07T09:01:32.027Z,1006.32
2017-09-07T09:02:44.244Z,1006.3
2017-09-07T09:03:56.786Z,1006.31
2017-09-07T09:05:09.279Z,1006.3
2017-09-07T09:06:21.845Z,1006.31
2017-09-07T09:07:34.394Z,1006.28
2017-09-07T09:08:46.653Z,1006.21
2017-09-07T09:09:58.907Z,1006.14
2017-09-07T09:11:10.814Z,1006.12
2017-09-07T09:12:23.356Z,1005.96
2017-09-07T09:13:35.882Z,1006.28
2017-09-07T09:14:48.445Z,1006.34
2017-09-07T09:16:00.348Z,1006.32
2017-09-07T09:17:12.585Z,1006.31
2017-09-07T09:18:24.802Z,1006.29
2017-09-07T09:19:37.034Z,1006.39
2017-09-07T09:20:48.957Z,1006.22
2017-09-07T09:22:01.196Z,1006.31
2017-09-07T09:23:13.419Z,1006.19
2017-09-07T09:24:25.338Z,1006.28
2017-09-07T09:25:37.901Z,1006.29
2017-09-07T09:26:50.151Z,1006.29
2017-09-07T09:28:02.723Z,1006.1
2017-09-07T09:29:15.274Z,1006.07
2017-09-07T09:30:27.813Z,1006.05
2017-09-07T09:31:40.366Z,1005.96
2017-09-07T09:32:52.611Z,1005.93
2017-09-07T09:34:04.849Z,1005.98
2017-09-07T09:35:16.460Z,1006.14
2017-09-07T09:36:28.669Z,1006.22
2017-09-07T09:37:40.298Z,1006.22
2017-09-07T09:38:52.829Z,1006.16
2017-09-07T09:40:05.056Z,1006.21
2017-09-07T09:41:17.320Z,1006.11
2017-09-07T09:42:29.869Z,1006.02
2017-09-07T09:43:42.095Z,1006.2
2017-09-07T09:44:54.591Z,1006.29
2017-09-07T09:46:07.187Z,1006.31
2017-09-07T09:47:19.412Z,1006.21
2017-09-07T09:48:31.949Z,1006.06
2017-09-07T09:49:44.189Z,1006.26
2017-09-07T09:50:56.096Z,1005.98
2017-09-07T09:52:08.330Z,1005.88
2017-09-07T09:53:20.859Z,1005.88
2017-09-07T09:54:33.400Z,1005.91
2017-09-07T09:55:45.601Z,1005.91
2017-09-07T09:56:57.830Z,1005.93
2017-09-07T09:58:09.741Z,1005.81
2017-09-07T09:59:21.918Z,1005.86
2017-09-07T10:00:34.453Z,1006.07
2017-09-07T10:01:46.998Z,1006.05
2017-09-07T10:02:58.916Z,1006.08
2017-09-07T10:04:11.149Z,1006.09
2017-09-07T10:05:23.407Z,1006.02
2017-09-07T10:06:35.640Z,1006.02
2017-09-07T10:07:48.174Z,1006.01
2017-09-07T10:09:00.397Z,1005.93
2017-09-07T10:10:12.947Z,1005.98
2017-09-07T10:11:25.497Z,1006
2017-09-07T10:12:38.068Z,1005.99
2017-09-07T10:13:50.614Z,1005.75
2017-09-07T10:15:03.186Z,1005.64
2017-09-07T10:16:15.405Z,1005.66
2017-09-07T10:17:27.651Z,1005.77
2017-09-07T10:18:39.894Z,1005.85
2017-09-07T10:19:52.459Z,1005.78
2017-09-07T10:21:04.934Z,1005.82
2017-09-07T10:22:17.475Z,1005.85
2017-09-07T10:23:30.024Z,1005.85
2017-09-07T10:24:41.341Z,1005.85
2017-09-07T10:25:53.559Z,1005.91
2017-09-07T10:27:05.804Z,1005.91
2017-09-07T10:28:18.333Z,1005.98
2017-09-07T10:29:30.878Z,1006.14
2017-09-07T10:30:43.401Z,1006.13
2017-09-07T10:31:55.644Z,1006.14
2017-09-07T10:33:07.594Z,1006.09
2017-09-07T10:34:20.157Z,1006.06
2017-09-07T10:35:32.082Z,1006.05
2017-09-07T10:36:44.028Z,1006.01
2017-09-07T10:37:56.549Z,1005.95
2017-09-07T10:39:09.097Z,1006
2017-09-07T10:40:21.035Z,1006.07
2017-09-07T10:41:33.234Z,1006.21
2017-09-07T10:42:45.140Z,1006.19
2017-09-07T10:43:57.055Z,1006.12
2017-09-07T10:45:09.302Z,1006.1
2017-09-07T10:46:21.546Z,1006.06
2017-09-07T10:47:33.767Z,1005.95
2017-09-07T10:48:46.288Z,1005.87
2017-09-07T10:49:57.949Z,1005.8
2017-09-07T10:51:09.856Z,1005.74
2017-09-07T10:52:22.413Z,1005.72
2017-09-07T10:53:34.945Z,1005.76
2017-09-07T10:54:47.513Z,1005.75
2017-09-07T10:55:59.458Z,1005.79
2017-09-07T10:57:11.424Z,1005.84
2017-09-07T10:58:23.667Z,1005.98
2017-09-07T10:59:36.194Z,1006.09
2017-09-07T11:00:48.443Z,1006.17
2017-09-07T11:02:00.690Z,1006.16
2017-09-07T11:03:13.248Z,1006.18
2017-09-07T11:04:25.476Z,1006.16
2017-09-07T11:05:38.023Z,1006.05
2017-09-07T11:06:50.245Z,1006.15
2017-09-07T11:08:02.192Z,1006.08
2017-09-07T11:09:14.752Z,1005.98
2017-09-07T11:10:27.272Z,1005.95
2017-09-07T11:11:39.493Z,1005.88
2017-09-07T11:12:52.042Z,1005.88
2017-09-07T11:14:04.594Z,1005.88
2017-09-07T11:15:17.141Z,1005.9
2017-09-07T11:16:29.407Z,1005.9
2017-09-07T11:17:40.722Z,1005.91
2017-09-07T11:18:52.925Z,1005.92
2017-09-07T11:20:05.151Z,1005.9
2017-09-07T11:21:17.711Z,1005.83
2017-09-07T11:22:30.238Z,1005.95
2017-09-07T11:23:42.783Z,1005.99
2017-09-07T11:24:55.020Z,1005.97
2017-09-07T11:26:07.577Z,1005.89
2017-09-07T11:27:19.496Z,1005.77
2017-09-07T11:28:32.015Z,1005.73
2017-09-07T11:29:44.564Z,1005.75
2017-09-07T11:30:57.085Z,1005.75
2017-09-07T11:32:09.630Z,1005.85
2017-09-07T11:33:22.164Z,1005.91
2017-09-07T11:34:34.397Z,1005.99
2017-09-07T11:35:46.638Z,1006.08
2017-09-07T11:36:58.580Z,1006.11
2017-09-07T11:38:10.806Z,1006.21
2017-09-07T11:39:23.330Z,1006.16
2017-09-07T11:40:35.600Z,1006.2
2017-09-07T11:41:47.535Z,1006.2
2017-09-07T11:42:59.792Z,1006.22
2017-09-07T11:44:12.353Z,1006.26
2017-09-07T11:45:24.896Z,1006.29
2017-09-07T11:46:37.445Z,1006.23
2017-09-07T11:47:49.687Z,1006.2
2017-09-07T11:49:02.216Z,1006.22
2017-09-07T11:50:14.455Z,1006.17
2017-09-07T11:51:26.699Z,1006.08
2017-09-07T11:52:37.981Z,1006.04
2017-09-07T11:53:50.227Z,1006.09
2017-09-07T11:55:02.778Z,1006.12
2017-09-07T11:56:15.324Z,1006.13
2017-09-07T11:57:27.264Z,1006.17
2017-09-07T11:58:39.524Z,1006.24
2017-09-07T11:59:50.844Z,1006.29
2017-09-07T12:01:02.772Z,1006.26
2017-09-07T12:02:15.313Z,1006.18
2017-09-07T12:03:27.531Z,1006.07
2017-09-07T12:04:40.004Z,1006.04
2017-09-07T12:05:52.554Z,1006.04
2017-09-07T12:07:04.771Z,1006.15
2017-09-07T12:08:16.400Z,1006.2
2017-09-07T12:09:28.941Z,1006.22
2017-09-07T12:10:41.518Z,1006.24
2017-09-07T12:11:53.462Z,1006.2
2017-09-07T12:13:05.424Z,1006.24
2017-09-07T12:14:17.670Z,1006.25
2017-09-07T12:15:29.915Z,1006.22
2017-09-07T12:16:42.484Z,1006.26
2017-09-07T12:17:54.715Z,1006.29
2017-09-07T12:19:07.278Z,1006.19
2017-09-07T12:20:19.524Z,1006.26
2017-09-07T12:21:31.755Z,1006.22
2017-09-07T12:22:43.995Z,1006.12
2017-09-07T12:23:56.507Z,1006.06
2017-09-07T12:25:08.736Z,1006.1
2017-09-07T12:26:21.285Z,1006.24
2017-09-07T12:27:33.202Z,1006.34
2017-09-07T12:28:45.426Z,1006.42
2017-09-07T12:29:57.370Z,1006.54
2017-09-07T12:31:09.906Z,1006.43
2017-09-07T12:32:22.441Z,1006.37
2017-09-07T12:33:34.654Z,1006.2
2017-09-07T12:34:46.579Z,1006.18
2017-09-07T12:35:59.121Z,1006.16
2017-09-07T12:37:11.048Z,1006.22
2017-09-07T12:38:23.579Z,1006.38
2017-09-07T12:39:35.779Z,1006.46
2017-09-07T12:40:48.329Z,1006.43
2017-09-07T12:42:00.552Z,1006.41
2017-09-07T12:43:12.775Z,1006.47
2017-09-07T12:44:25.007Z,1006.48
2017-09-07T12:45:37.239Z,1006.49
2017-09-07T12:46:49.787Z,1006.4
2017-09-07T12:48:02.398Z,1006.37
2017-09-07T12:49:14.341Z,1006.36
2017-09-07T12:50:26.586Z,1006.37
2017-09-07T12:51:38.832Z,1006.38
2017-09-07T12:52:51.064Z,1006.36
2017-09-07T12:54:02.983Z,1006.35
2017-09-07T12:55:15.556Z,1006.31
2017-09-07T12:56:28.118Z,1006.34
2017-09-07T12:57:40.046Z,1006.3
2017-09-07T12:58:52.584Z,1006.3
2017-09-07T13:00:05.109Z,1006.3
2017-09-07T13:01:17.308Z,1006.22
2017-09-07T13:02:29.868Z,1006.12
2017-09-07T13:03:42.075Z,1006.23
2017-09-07T13:04:54.595Z,1006.21
2017-09-07T13:06:06.830Z,1006.21
2017-09-07T13:07:19.058Z,1006.16
2017-09-07T13:08:31.607Z,1006.25
2017-09-07T13:09:44.126Z,1006.36
2017-09-07T13:10:56.049Z,1006.34
2017-09-07T13:12:08.592Z,1006.37
2017-09-07T13:13:21.114Z,1006.37
2017-09-07T13:14:33.365Z,1006.33
2017-09-07T13:15:45.295Z,1006.37
2017-09-07T13:16:57.206Z,1006.37
2017-09-07T13:18:09.439Z,1006.37
2017-09-07T13:19:21.690Z,1006.39
2017-09-07T13:20:34.214Z,1006.44
2017-09-07T13:21:46.755Z,1006.39
2017-09-07T13:22:58.075Z,1006.42
2017-09-07T13:24:10.625Z,1006.48
2017-09-07T13:25:22.871Z,1006.42
2017-09-07T13:26:35.113Z,1006.46
2017-09-07T13:27:46.726Z,1006.53
2017-09-07T13:28:59.253Z,1006.61
2017-09-07T13:30:10.868Z,1006.61
2017-09-07T13:31:23.417Z,1006.6
2017-09-07T13:32:35.037Z,1006.59
2017-09-07T13:33:47.286Z,1006.57
2017-09-07T13:34:59.534Z,1006.63
2017-09-07T13:36:11.446Z,1006.6
2017-09-07T13:37:23.678Z,1006.58
2017-09-07T13:38:35.599Z,1006.64
2017-09-07T13:39:47.858Z,1006.67
2017-09-07T13:41:00.386Z,1006.66
2017-09-07T13:42:12.957Z,1006.63
2017-09-07T13:43:25.201Z,1006.58
2017-09-07T13:44:37.793Z,1006.57
2017-09-07T13:45:49.692Z,1006.5
2017-09-07T13:47:01.615Z,1006.38
2017-09-07T13:48:13.837Z,1006.34
2017-09-07T13:49:26.375Z,1006.32
2017-09-07T13:50:38.956Z,1006.29
2017-09-07T13:51:51.518Z,1006.32
2017-09-07T13:53:03.785Z,1006.34
2017-09-07T13:54:16.016Z,1006.4
2017-09-07T13:55:28.277Z,1006.43
2017-09-07T13:56:40.807Z,1006.4
2017-09-07T13:57:53.000Z,1006.42
2017-09-07T13:59:05.571Z,1006.43
2017-09-07T14:00:17.836Z,1006.45
2017-09-07T14:01:30.390Z,1006.39
2017-09-07T14:02:42.311Z,1006.38
2017-09-07T14:03:54.246Z,1006.37
2017-09-07T14:05:05.850Z,1006.32
2017-09-07T14:06:18.399Z,1006.3
2017-09-07T14:07:30.970Z,1006.28
2017-09-07T14:08:42.885Z,1006.26
2017-09-07T14:09:54.474Z,1006.31
2017-09-07T14:11:06.078Z,1006.28
2017-09-07T14:12:18.579Z,1006.28
2017-09-07T14:13:31.193Z,1006.28
2017-09-07T14:14:43.471Z,1006.24
2017-09-07T14:15:55.456Z,1006.21
2017-09-07T14:17:07.712Z,1006.13
2017-09-07T14:18:20.275Z,1006.2
2017-09-07T14:19:33.078Z,1006.16
2017-09-07T14:20:45.393Z,1006.05
2017-09-07T14:21:57.320Z,1005.99
2017-09-07T14:23:08.983Z,1005.97
2017-09-07T14:24:21.529Z,1005.95
2017-09-07T14:25:33.505Z,1005.99
2017-09-07T14:26:45.771Z,1005.95
2017-09-07T14:27:58.345Z,1005.94
2017-09-07T14:29:10.328Z,1005.97
2017-09-07T14:30:22.881Z,1005.94
2017-09-07T14:31:35.404Z,1005.96
2017-09-07T14:32:47.948Z,1005.94
2017-09-07T14:34:00.525Z,1005.97
2017-09-07T14:35:13.121Z,1005.99
2017-09-07T14:36:25.684Z,1006.02